Time;durP1;ratioP1;P1;durP2;ratioP2;P2;SDS_P1;SDS_P2;PMS_P1;PMS_P2;Temp;Humidity;BMP_temperature;BMP_pressure;BME280_temperature;BME280_humidity;BME280_pressure;Samples;Min_cycle;Max_cycle;Signal;HPM_P1;HPM_P2
2023/10/18 00:00:28;;;;;;;19.27;15.50;;;7.90;99.90;;;;;;5029195;28;37546;-74
2023/10/18 00:02:54;;;;;;;19.23;15.00;;;7.90;99.90;;;;;;5033097;28;47090;-75
2023/10/18 00:05:22;;;;;;;20.73;15.70;;;7.90;99.90;;;;;;5031699;28;37574;-75
2023/10/18 00:07:49;;;;;;;20.03;15.10;;;7.90;99.90;;;;;;5042150;28;38453;-75
2023/10/18 00:10:17;;;;;;;20.90;15.67;;;7.90;99.90;;;;;;5021911;28;37295;-75
2023/10/18 00:12:47;;;;;;;20.57;14.47;;;7.90;99.90;;;;;;5030089;28;38850;-76
2023/10/18 00:15:14;;;;;;;21.97;15.60;;;7.90;99.90;;;;;;5026542;28;38389;-74
2023/10/18 00:17:40;;;;;;;18.93;14.93;;;7.90;99.90;;;;;;5026956;28;38642;-74
2023/10/18 00:20:19;;;;;;;21.60;15.53;;;7.90;99.90;;;;;;5029776;28;37512;-75
2023/10/18 00:22:45;;;;;;;22.30;14.93;;;7.80;99.90;;;;;;5021731;28;38523;-75
2023/10/18 00:25:12;;;;;;;18.67;14.80;;;7.80;99.90;;;;;;5028561;28;38467;-75
2023/10/18 00:27:41;;;;;;;17.03;13.57;;;7.80;99.90;;;;;;5039433;28;38507;-74
2023/10/18 00:30:11;;;;;;;22.80;15.30;;;7.80;99.90;;;;;;5017881;28;37279;-74
2023/10/18 00:32:42;;;;;;;24.43;15.90;;;7.70;99.90;;;;;;5025168;28;37978;-74
2023/10/18 00:35:18;;;;;;;17.93;13.63;;;7.80;99.90;;;;;;5024957;28;37344;-74
2023/10/18 00:37:45;;;;;;;18.77;14.80;;;7.80;99.90;;;;;;5043434;28;37168;-75
2023/10/18 00:40:56;;;;;;;17.90;13.93;;;7.70;99.90;;;;;;5026531;28;37373;-75
2023/10/18 00:43:04;;;;;;;20.97;15.73;;;7.70;99.90;;;;;;5015989;28;39815;-74
2023/10/18 00:45:31;;;;;;;21.03;14.60;;;7.70;99.90;;;;;;5034682;28;47036;-75
2023/10/18 00:48:04;;;;;;;21.50;14.77;;;7.70;99.90;;;;;;5016082;28;38810;-76
2023/10/18 00:50:33;;;;;;;24.37;15.37;;;7.70;99.90;;;;;;5035330;28;47035;-74
2023/10/18 00:53:00;;;;;;;17.07;14.03;;;7.70;99.90;;;;;;5036515;28;39720;-75
2023/10/18 00:55:27;;;;;;;20.63;14.87;;;7.70;99.90;;;;;;5017827;28;47349;-75
2023/10/18 00:57:53;;;;;;;21.37;16.47;;;7.60;99.90;;;;;;5038019;28;37345;-75
2023/10/18 01:02:59;;;;;;;18.97;13.70;;;7.60;99.90;;;;;;5430823;22;20057;-76
2023/10/18 01:05:26;;;;;;;19.63;16.13;;;7.50;99.90;;;;;;5025080;28;38885;-76
2023/10/18 01:07:59;;;;;;;21.27;15.93;;;7.60;99.90;;;;;;5036227;28;36712;-77
2023/10/18 01:10:30;;;;;;;19.65;14.25;;;7.60;99.90;;;;;;5042126;28;36848;-76
2023/10/18 01:12:57;;;;;;;22.15;15.80;;;7.50;99.90;;;;;;5035591;28;39656;-76
2023/10/18 01:15:27;;;;;;;19.07;14.93;;;7.50;99.90;;;;;;5048017;28;37469;-76
2023/10/18 01:17:54;;;;;;;20.07;15.03;;;7.50;99.90;;;;;;5032409;28;38297;-76
2023/10/18 01:22:58;;;;;;;20.53;15.67;;;7.50;99.90;;;;;;5027203;28;40082;-76
2023/10/18 01:25:24;;;;;;;22.17;15.13;;;7.50;99.90;;;;;;5036291;28;38119;-76
2023/10/18 01:27:53;;;;;;;20.27;15.93;;;7.50;99.90;;;;;;5036819;28;38694;-76
2023/10/18 01:30:22;;;;;;;19.20;14.70;;;7.50;99.90;;;;;;5026589;28;39302;-76
2023/10/18 01:32:49;;;;;;;17.70;14.30;;;7.50;99.90;;;;;;5038899;28;39210;-76
2023/10/18 01:35:15;;;;;;;20.03;14.83;;;7.40;99.90;;;;;;5036637;28;38429;-76
2023/10/18 01:37:43;;;;;;;18.17;13.47;;;7.40;99.90;;;;;;5029349;28;37670;-76
2023/10/18 01:40:29;;;;;;;19.03;15.10;;;7.40;99.90;;;;;;5028177;28;37522;-76
2023/10/18 01:42:56;;;;;;;20.07;15.40;;;7.40;99.90;;;;;;5034700;28;39856;-76
2023/10/18 01:45:37;;;;;;;18.80;14.73;;;7.40;99.90;;;;;;5031532;28;37182;-76
2023/10/18 01:48:09;;;;;;;22.13;15.47;;;7.40;99.90;;;;;;5024503;28;38141;-76
2023/10/18 01:50:39;;;;;;;17.83;14.35;;;7.40;99.90;;;;;;5027308;28;37468;-76
2023/10/18 01:53:15;;;;;;;19.90;14.00;;;7.40;99.90;;;;;;5034144;28;37924;-76
2023/10/18 01:55:52;;;;;;;17.83;14.27;;;7.30;99.90;;;;;;5027632;28;38033;-76
2023/10/18 01:58:23;;;;;;;19.77;14.67;;;7.40;99.90;;;;;;5030459;28;38125;-76
2023/10/18 02:00:53;;;;;;;18.63;15.27;;;7.30;99.90;;;;;;5036212;28;36545;-76
2023/10/18 02:03:20;;;;;;;21.40;13.53;;;7.30;99.90;;;;;;5033723;28;37642;-78
2023/10/18 02:05:47;;;;;;;16.33;13.43;;;7.30;99.90;;;;;;5044231;28;38244;-76
2023/10/18 02:08:13;;;;;;;18.03;14.30;;;7.30;99.90;;;;;;5060518;28;37908;-76
2023/10/18 02:10:44;;;;;;;19.50;15.40;;;7.30;99.90;;;;;;5036768;28;36218;-77
2023/10/18 02:13:14;;;;;;;18.53;14.13;;;7.30;99.90;;;;;;5033766;28;38854;-77
2023/10/18 02:15:40;;;;;;;19.00;14.87;;;7.30;99.90;;;;;;5057336;28;37507;-76
2023/10/18 02:18:08;;;;;;;17.83;14.53;;;7.30;99.90;;;;;;5034977;28;37108;-76
2023/10/18 02:20:36;;;;;;;17.73;13.00;;;7.30;99.90;;;;;;5036070;28;36578;-76
2023/10/18 02:23:10;;;;;;;21.50;13.67;;;7.30;99.90;;;;;;5038688;28;37931;-76
2023/10/18 02:25:46;;;;;;;18.60;14.13;;;7.30;99.90;;;;;;5038414;28;39650;-76
2023/10/18 02:28:27;;;;;;;18.67;14.40;;;7.30;99.90;;;;;;5054034;28;37158;-76
2023/10/18 02:30:57;;;;;;;18.33;14.40;;;7.30;99.90;;;;;;5036193;28;37622;-75
2023/10/18 02:33:36;;;;;;;18.60;14.23;;;7.30;99.90;;;;;;5039987;28;38724;-75
2023/10/18 02:36:12;;;;;;;17.83;14.33;;;7.30;99.90;;;;;;5032080;28;37634;-75
2023/10/18 02:38:40;;;;;;;16.33;13.10;;;7.30;99.90;;;;;;5036920;28;38143;-75
2023/10/18 02:41:21;;;;;;;19.13;15.00;;;7.30;99.90;;;;;;5037168;28;38274;-75
2023/10/18 02:43:54;;;;;;;15.90;12.83;;;7.20;99.90;;;;;;5052876;28;37677;-76
2023/10/18 02:46:25;;;;;;;16.90;13.63;;;7.20;99.90;;;;;;5035757;28;37904;-76
2023/10/18 02:48:52;;;;;;;19.03;13.93;;;7.20;99.90;;;;;;5032712;28;38840;-76
2023/10/18 02:51:22;;;;;;;25.67;15.30;;;7.20;99.90;;;;;;5034843;28;37959;-76
2023/10/18 02:54:10;;;;;;;17.57;12.97;;;7.20;99.90;;;;;;5029020;28;38721;-76
2023/10/18 02:56:38;;;;;;;16.20;13.67;;;7.20;99.90;;;;;;5039801;28;48980;-76
2023/10/18 02:59:08;;;;;;;17.73;13.73;;;7.10;99.90;;;;;;5029406;28;38165;-76
2023/10/18 03:01:39;;;;;;;17.53;14.00;;;7.10;99.90;;;;;;5032427;28;37204;-76
2023/10/18 03:04:08;;;;;;;20.60;14.77;;;7.10;99.90;;;;;;5028353;28;38050;-77
2023/10/18 03:06:34;;;;;;;21.63;14.33;;;7.20;99.90;;;;;;5035500;28;38674;-76
2023/10/18 03:09:01;;;;;;;20.17;14.77;;;7.20;99.90;;;;;;5049986;28;37303;-77
2023/10/18 03:11:27;;;;;;;18.40;14.07;;;7.20;99.90;;;;;;5036464;28;47257;-76
2023/10/18 03:13:57;;;;;;;17.87;14.27;;;7.10;99.90;;;;;;5038914;28;38502;-75
2023/10/18 03:18:59;;;;;;;21.07;14.00;;;7.20;99.90;;;;;;5034610;28;38132;-75
2023/10/18 03:21:32;;;;;;;15.53;12.90;;;7.20;99.90;;;;;;5033625;28;37586;-76
2023/10/18 03:23:58;;;;;;;18.60;13.40;;;7.20;99.90;;;;;;5033531;28;38957;-75
2023/10/18 03:26:35;;;;;;;16.73;13.27;;;7.20;99.90;;;;;;5032796;28;39140;-75
2023/10/18 03:29:11;;;;;;;19.53;13.10;;;7.20;99.90;;;;;;5030704;28;37863;-75
2023/10/18 03:31:42;;;;;;;14.77;12.53;;;7.20;99.90;;;;;;5037687;28;46995;-75
2023/10/18 03:34:15;;;;;;;18.20;12.80;;;7.30;99.90;;;;;;5028934;28;39225;-75
2023/10/18 03:36:51;;;;;;;13.55;11.65;;;7.30;99.90;;;;;;5027085;28;38927;-75
2023/10/18 03:39:19;;;;;;;17.07;12.33;;;7.20;99.90;;;;;;5038264;28;37365;-75
2023/10/18 03:41:53;;;;;;;18.03;12.03;;;7.20;99.90;;;;;;5021881;28;36145;-76
2023/10/18 03:44:32;;;;;;;14.77;12.03;;;7.30;99.90;;;;;;5032204;28;39181;-76
2023/10/18 03:47:05;;;;;;;17.10;12.83;;;7.30;99.90;;;;;;5032179;28;37533;-76
2023/10/18 03:49:37;;;;;;;16.60;11.90;;;7.40;99.90;;;;;;5041495;28;47158;-76
2023/10/18 03:52:16;;;;;;;14.00;11.50;;;7.30;99.90;;;;;;5029352;28;36194;-77
2023/10/18 03:54:47;;;;;;;13.80;10.37;;;7.40;99.90;;;;;;5034808;28;38985;-75
2023/10/18 03:57:16;;;;;;;16.37;11.97;;;7.30;99.90;;;;;;5047664;28;37570;-76
2023/10/18 03:59:46;;;;;;;15.97;11.60;;;7.40;99.90;;;;;;5033698;28;37838;-77
2023/10/18 04:02:16;;;;;;;13.90;11.20;;;7.40;99.90;;;;;;5027448;28;37399;-76
2023/10/18 04:04:48;;;;;;;13.57;11.53;;;7.40;99.90;;;;;;5032533;28;37757;-77
2023/10/18 04:07:17;;;;;;;16.73;11.20;;;7.40;99.90;;;;;;5034055;28;38863;-77
2023/10/18 04:10:06;;;;;;;17.23;11.00;;;7.40;99.90;;;;;;5031428;28;38376;-76
2023/10/18 04:12:33;;;;;;;13.53;11.07;;;7.40;99.90;;;;;;5033399;28;48621;-76
2023/10/18 04:14:59;;;;;;;13.80;10.50;;;7.40;99.90;;;;;;5039455;28;38029;-76
2023/10/18 04:17:38;;;;;;;14.10;10.77;;;7.40;99.90;;;;;;5031206;28;37987;-76
2023/10/18 04:22:47;;;;;;;11.97;10.00;;;7.50;99.90;;;;;;5035168;28;50514;-76
2023/10/18 04:28:03;;;;;;;15.83;10.53;;;7.50;99.90;;;;;;5009542;28;38200;-76
2023/10/18 04:30:30;;;;;;;14.03;10.50;;;7.50;99.90;;;;;;5029347;28;38049;-77
2023/10/18 04:33:00;;;;;;;16.73;11.50;;;7.50;99.90;;;;;;5037544;28;36155;-76
2023/10/18 04:35:29;;;;;;;13.10;10.30;;;7.50;99.90;;;;;;5026967;28;39289;-76
2023/10/18 04:37:56;;;;;;;15.17;10.17;;;7.50;99.90;;;;;;5030692;28;37272;-76
2023/10/18 04:40:25;;;;;;;14.43;10.10;;;7.50;99.90;;;;;;5024806;28;37201;-76
2023/10/18 04:42:55;;;;;;;13.83;10.07;;;7.50;99.90;;;;;;5028992;28;36652;-77
2023/10/18 04:45:26;;;;;;;15.20;10.27;;;7.50;99.90;;;;;;5027534;28;40063;-76
2023/10/18 04:48:23;;;;;;;13.23;9.90;;;7.50;99.90;;;;;;5033390;28;38230;-76
2023/10/18 04:50:52;;;;;;;14.97;10.10;;;7.50;99.90;;;;;;5035681;28;48714;-76
2023/10/18 04:53:23;;;;;;;15.90;10.37;;;7.50;99.90;;;;;;5047054;28;35149;-75
2023/10/18 04:55:50;;;;;;;13.53;10.27;;;7.50;99.90;;;;;;5033361;28;38836;-76
2023/10/18 04:58:16;;;;;;;12.90;10.07;;;7.50;99.90;;;;;;5032905;28;41059;-77
2023/10/18 05:01:08;;;;;;;18.07;10.33;;;7.50;99.90;;;;;;5034788;28;38548;-79
2023/10/18 05:03:34;;;;;;;14.03;10.63;;;7.50;99.90;;;;;;5035886;28;47739;-77
2023/10/18 05:06:00;;;;;;;11.87;9.57;;;7.50;99.90;;;;;;5031274;28;37557;-77
2023/10/18 05:08:30;;;;;;;17.60;9.73;;;7.60;99.90;;;;;;5034355;28;37125;-77
2023/10/18 05:11:22;;;;;;;13.27;10.17;;;7.50;99.90;;;;;;5034397;28;36825;-77
2023/10/18 05:13:42;;;;;;;13.90;9.70;;;7.50;99.90;;;;;;5038801;28;48903;-77
2023/10/18 05:16:11;;;;;;;13.27;9.07;;;7.60;99.90;;;;;;5040386;28;37764;-78
2023/10/18 05:18:37;;;;;;;12.90;9.60;;;7.60;99.90;;;;;;5058612;28;37832;-78
2023/10/18 05:21:08;;;;;;;13.10;8.87;;;7.50;99.90;;;;;;5041872;28;39139;-78
2023/10/18 05:23:35;;;;;;;10.73;8.80;;;7.60;99.90;;;;;;5059649;28;36508;-79
2023/10/18 05:28:47;;;;;;;;;;;7.60;99.90;;;;;;5039553;28;50475;-78
2023/10/18 05:31:43;;;;;;;10.87;8.33;;;7.60;99.90;;;;;;5035857;28;37356;-77
2023/10/18 05:36:35;;;;;;;12.47;9.07;;;7.60;99.90;;;;;;5034706;28;40494;-78
2023/10/18 05:39:19;;;;;;;10.60;8.33;;;7.60;99.90;;;;;;5051320;28;38554;-76
2023/10/18 05:41:51;;;;;;;15.73;9.37;;;7.60;99.90;;;;;;5030540;28;36751;-75
2023/10/18 05:44:20;;;;;;;9.90;8.15;;;7.60;99.90;;;;;;5032053;28;36795;-76
2023/10/18 05:46:46;;;;;;;14.73;9.53;;;7.60;99.90;;;;;;5031088;28;39345;-76
2023/10/18 05:49:15;;;;;;;10.57;8.30;;;7.50;99.90;;;;;;5049940;28;37527;-76
2023/10/18 05:51:52;;;;;;;13.67;8.87;;;7.50;99.90;;;;;;5027915;28;37132;-74
2023/10/18 05:54:22;;;;;;;11.43;8.47;;;7.50;99.90;;;;;;5026276;28;38096;-75
2023/10/18 05:56:49;;;;;;;11.70;8.20;;;7.60;99.90;;;;;;5041504;28;38015;-76
2023/10/18 06:04:42;;;;;;;11.50;8.47;;;7.60;99.90;;;;;;5027908;28;49237;-76
2023/10/18 06:07:10;;;;;;;13.63;9.00;;;7.60;99.90;;;;;;5030801;28;39699;-75
2023/10/18 06:09:46;;;;;;;13.53;9.63;;;7.60;99.90;;;;;;5031158;28;37355;-75
2023/10/18 06:12:14;;;;;;;12.50;8.17;;;7.60;99.90;;;;;;5029344;28;38823;-75
2023/10/18 06:14:44;;;;;;;12.90;8.27;;;7.50;99.90;;;;;;5027718;28;36149;-76
2023/10/18 06:17:19;;;;;;;12.37;8.63;;;7.50;99.90;;;;;;5014286;28;38533;-76
2023/10/18 06:19:47;;;;;;;13.57;9.57;;;7.50;99.90;;;;;;5024588;28;37377;-75
2023/10/18 06:22:29;;;;;;;13.70;10.00;;;7.50;99.90;;;;;;5022566;28;36907;-76
2023/10/18 06:25:00;;;;;;;12.37;9.50;;;7.50;99.90;;;;;;5026469;28;37762;-75
2023/10/18 06:27:28;;;;;;;12.47;8.77;;;7.60;99.90;;;;;;5026301;28;37669;-75
2023/10/18 06:29:54;;;;;;;13.23;8.70;;;7.60;99.90;;;;;;5027320;28;38644;-76
2023/10/18 06:32:25;;;;;;;16.03;8.40;;;7.60;99.90;;;;;;5027737;28;37882;-76
2023/10/18 06:34:57;;;;;;;14.13;8.73;;;7.60;99.90;;;;;;5029828;28;36188;-76
2023/10/18 06:37:24;;;;;;;13.30;8.38;;;7.70;99.90;;;;;;5029960;28;38646;-76
2023/10/18 06:39:58;;;;;;;10.20;8.23;;;7.70;99.90;;;;;;5043582;28;37873;-76
2023/10/18 06:42:27;;;;;;;13.80;8.50;;;7.70;99.90;;;;;;5028997;28;39081;-76
2023/10/18 06:44:56;;;;;;;10.90;8.60;;;7.70;99.90;;;;;;5045711;28;37355;-76
2023/10/18 06:47:31;;;;;;;13.27;9.40;;;7.70;99.90;;;;;;5025035;28;38422;-76
2023/10/18 06:50:04;;;;;;;11.20;8.63;;;7.70;99.90;;;;;;5030793;28;37239;-76
2023/10/18 06:52:40;;;;;;;12.80;8.73;;;7.80;99.90;;;;;;5046411;28;46492;-76
2023/10/18 06:55:07;;;;;;;12.07;8.53;;;7.80;99.90;;;;;;5030590;28;37440;-77
2023/10/18 06:57:36;;;;;;;11.67;8.30;;;7.80;99.90;;;;;;5027889;28;38165;-77
2023/10/18 07:00:07;;;;;;;15.23;8.10;;;7.90;99.90;;;;;;5047914;28;37831;-77
2023/10/18 07:02:33;;;;;;;12.77;7.87;;;7.90;99.90;;;;;;5020861;28;39061;-77
2023/10/18 07:05:00;;;;;;;9.93;8.17;;;8.00;99.90;;;;;;5020002;28;36082;-77
2023/10/18 07:07:26;;;;;;;11.40;7.03;;;8.00;99.90;;;;;;5029174;28;38941;-76
2023/10/18 07:09:53;;;;;;;11.57;8.20;;;8.00;99.90;;;;;;5025262;28;38295;-76
2023/10/18 07:12:26;;;;;;;13.23;7.30;;;8.10;99.90;;;;;;5026672;28;36928;-77
2023/10/18 07:14:56;;;;;;;11.20;7.87;;;8.10;99.90;;;;;;5023866;28;36872;-76
2023/10/18 07:17:24;;;;;;;11.60;7.47;;;8.20;99.90;;;;;;5025013;28;38115;-77
2023/10/18 07:19:56;;;;;;;10.37;7.40;;;8.20;99.90;;;;;;5032108;28;37215;-76
2023/10/18 07:22:39;;;;;;;12.55;7.80;;;8.20;99.90;;;;;;5031149;28;38262;-77
2023/10/18 07:25:09;;;;;;;10.97;7.30;;;8.30;99.90;;;;;;5031869;28;37053;-76
2023/10/18 07:27:36;;;;;;;8.97;6.73;;;8.40;99.90;;;;;;5023661;28;39535;-76
2023/10/18 07:30:13;;;;;;;12.83;7.17;;;8.40;99.90;;;;;;5034397;28;38262;-76
2023/10/18 07:32:41;;;;;;;9.80;7.40;;;8.40;99.90;;;;;;5048014;28;47182;-77
2023/10/18 07:35:26;;;;;;;11.50;6.73;;;8.40;99.90;;;;;;5038912;28;36388;-76
2023/10/18 07:37:55;;;;;;;9.77;6.63;;;8.50;99.90;;;;;;5028086;28;38847;-77
2023/10/18 07:40:22;;;;;;;11.33;6.90;;;8.50;99.90;;;;;;5033721;28;37812;-76
2023/10/18 07:42:51;;;;;;;12.13;7.47;;;8.50;99.90;;;;;;5052539;28;38314;-77
2023/10/18 07:45:21;;;;;;;10.63;6.53;;;8.50;99.90;;;;;;5044351;28;36059;-77
2023/10/18 07:47:54;;;;;;;8.67;6.53;;;8.60;99.90;;;;;;5033125;28;37643;-77
2023/10/18 07:50:41;;;;;;;;;;;8.70;99.90;;;;;;5028448;28;38274;-77
2023/10/18 07:53:11;;;;;;;10.20;6.40;;;8.70;99.90;;;;;;5048346;28;38020;-76
2023/10/18 07:55:37;;;;;;;12.53;6.87;;;8.70;99.90;;;;;;5047523;28;37974;-77
2023/10/18 07:58:17;;;;;;;9.33;6.50;;;8.80;99.90;;;;;;5030396;28;37590;-77
2023/10/18 08:03:31;;;;;;;10.23;6.57;;;8.90;99.90;;;;;;5029575;28;48876;-76
2023/10/18 08:05:59;;;;;;;9.30;6.20;;;9.00;99.90;;;;;;5029802;28;36851;-76
2023/10/18 08:08:26;;;;;;;8.73;5.90;;;9.00;99.90;;;;;;5025504;28;38533;-77
2023/10/18 08:10:55;;;;;;;10.87;6.70;;;9.00;99.90;;;;;;5029319;28;37578;-76
2023/10/18 08:13:28;;;;;;;9.63;6.40;;;9.10;99.90;;;;;;5032403;28;37216;-76
2023/10/18 08:15:56;;;;;;;8.43;5.77;;;9.10;99.90;;;;;;5041745;28;35535;-76
2023/10/18 08:21:07;;;;;;;10.67;6.30;;;9.20;99.90;;;;;;5028962;28;39340;-76
2023/10/18 08:26:06;;;;;;;10.37;6.93;;;9.20;99.90;;;;;;5033508;28;37934;-78
2023/10/18 08:28:39;;;;;;;10.35;6.70;;;9.20;99.90;;;;;;5032990;28;49218;-77
2023/10/18 08:31:16;;;;;;;8.37;6.13;;;9.30;99.90;;;;;;5029562;28;38696;-76
2023/10/18 08:33:44;;;;;;;11.33;6.53;;;9.40;99.90;;;;;;5030649;28;38602;-77
2023/10/18 08:36:13;;;;;;;12.23;5.97;;;9.40;99.90;;;;;;5027468;28;36011;-78
2023/10/18 08:38:44;;;;;;;9.17;7.17;;;9.50;99.90;;;;;;5045018;28;37652;-77
2023/10/18 08:41:15;;;;;;;8.03;6.27;;;9.50;99.90;;;;;;5024978;28;38708;-78
2023/10/18 08:43:52;;;;;;;8.47;6.47;;;9.50;99.90;;;;;;5029940;28;38276;-77
2023/10/18 08:46:24;;;;;;;10.93;6.57;;;9.60;99.90;;;;;;5027717;28;35864;-77
2023/10/18 08:48:55;;;;;;;9.18;5.53;;;9.60;99.90;;;;;;5031683;28;39031;-78
2023/10/18 08:51:26;;;;;;;9.07;6.10;;;9.70;99.90;;;;;;5033146;28;38957;-79
2023/10/18 08:53:54;;;;;;;7.97;5.90;;;9.70;99.90;;;;;;5029521;28;36945;-77
2023/10/18 08:56:29;;;;;;;9.87;6.63;;;9.80;99.90;;;;;;5030872;28;37392;-78
2023/10/18 08:58:58;;;;;;;9.87;6.67;;;9.80;99.90;;;;;;5025473;28;38623;-78
2023/10/18 09:01:25;;;;;;;8.60;6.00;;;9.80;99.10;;;;;;5029461;28;37230;-78
2023/10/18 09:03:51;;;;;;;12.83;6.47;;;9.80;98.10;;;;;;5036472;28;38173;-78
2023/10/18 09:06:31;;;;;;;9.57;6.73;;;9.80;96.90;;;;;;5021648;28;36511;-77
2023/10/18 09:09:08;;;;;;;11.43;6.53;;;9.80;99.90;;;;;;5032363;28;39949;-78
2023/10/18 09:11:36;;;;;;;9.63;6.37;;;10.00;99.90;;;;;;5047632;28;47498;-79
2023/10/18 09:14:12;;;;;;;8.70;6.13;;;10.10;99.90;;;;;;5031240;28;37865;-76
2023/10/18 09:16:40;;;;;;;11.53;6.13;;;10.10;99.90;;;;;;5031214;28;36374;-77
2023/10/18 09:19:07;;;;;;;8.53;5.93;;;10.10;97.30;;;;;;5030182;28;38785;-78
2023/10/18 09:21:50;;;;;;;9.87;6.07;;;10.10;98.20;;;;;;5034233;28;37549;-78
2023/10/18 09:24:23;;;;;;;;;;;10.20;96.70;;;;;;5032128;28;37382;-77
2023/10/18 09:26:52;;;;;;;9.40;6.32;;;10.20;99.20;;;;;;5055581;28;39701;-78
2023/10/18 09:29:18;;;;;;;10.53;6.43;;;10.20;98.60;;;;;;5038859;28;39242;-78
2023/10/18 09:31:54;;;;;;;8.55;5.82;;;10.30;96.60;;;;;;5053000;28;37106;-78
2023/10/18 09:34:33;;;;;;;8.23;6.18;;;10.40;95.20;;;;;;5049877;28;37050;-78
2023/10/18 09:36:59;;;;;;;11.68;6.30;;;10.40;95.50;;;;;;5053296;28;36122;-78
2023/10/18 09:39:37;;;;;;;12.98;6.13;;;10.40;92.10;;;;;;5054287;28;38114;-78
2023/10/18 09:42:15;;;;;;;7.53;6.07;;;10.50;94.30;;;;;;5048714;28;38600;-77
2023/10/18 09:44:42;;;;;;;10.20;6.03;;;10.70;95.90;;;;;;5028146;28;37822;-77
2023/10/18 09:47:09;;;;;;;8.73;5.53;;;10.80;94.90;;;;;;5044868;28;35993;-78
2023/10/18 09:49:43;;;;;;;9.30;5.95;;;10.90;93.60;;;;;;5047734;28;39183;-78
2023/10/18 09:52:11;;;;;;;10.23;6.75;;;11.00;94.20;;;;;;5025095;28;37709;-78
2023/10/18 09:54:50;;;;;;;8.23;5.78;;;11.10;82.90;;;;;;5028588;28;38025;-77
2023/10/18 09:57:23;;;;;;;14.10;6.57;;;11.20;85.60;;;;;;5045125;28;36127;-77
2023/10/18 09:59:57;;;;;;;6.88;5.30;;;11.30;86.60;;;;;;5030058;28;38495;-78
2023/10/18 10:02:24;;;;;;;7.75;5.95;;;11.40;92.80;;;;;;5026817;28;37575;-78
2023/10/18 10:04:55;;;;;;;11.23;6.75;;;11.60;91.20;;;;;;5042341;28;37914;-79
2023/10/18 10:07:28;;;;;;;9.32;6.25;;;11.70;92.50;;;;;;5025444;28;36926;-77
2023/10/18 10:10:07;;;;;;;9.98;6.70;;;11.80;82.70;;;;;;5040115;28;37894;-78
2023/10/18 10:12:35;;;;;;;8.45;5.50;;;11.90;72.50;;;;;;5023055;28;47153;-80
2023/10/18 10:15:02;;;;;;;7.25;5.82;;;11.80;60.10;;;;;;5039605;28;36902;-78
2023/10/18 10:17:30;;;;;;;8.57;5.20;;;11.70;64.90;;;;;;5027301;28;38287;-78
2023/10/18 10:20:15;;;;;;;9.68;5.55;;;11.80;66.20;;;;;;5033108;28;37183;-78
2023/10/18 10:22:45;;;;;;;7.05;5.60;;;11.80;68.80;;;;;;5027666;28;49165;-77
2023/10/18 10:25:31;;;;;;;8.32;5.47;;;12.00;58.50;;;;;;5034702;28;37101;-77
2023/10/18 10:28:13;;;;;;;8.55;5.88;;;12.00;57.40;;;;;;5023811;28;37351;-78
2023/10/18 10:30:43;;;;;;;9.23;5.68;;;12.10;57.20;;;;;;5025475;28;48938;-77
2023/10/18 10:33:12;;;;;;;8.32;5.60;;;12.20;53.70;;;;;;5015089;28;38480;-78
2023/10/18 10:35:45;;;;;;;9.15;5.75;;;12.30;68.80;;;;;;5041308;28;36886;-77
2023/10/18 10:38:21;;;;;;;9.30;5.82;;;12.30;56.60;;;;;;5022091;28;36902;-77
2023/10/18 10:40:48;;;;;;;7.30;5.28;;;12.30;52.90;;;;;;5043784;28;39782;-77
2023/10/18 10:43:18;;;;;;;8.10;5.57;;;12.50;43.40;;;;;;5039162;28;37582;-78
2023/10/18 10:48:37;;;;;;;11.93;6.07;;;12.60;59.00;;;;;;5024802;28;37730;-77
2023/10/18 10:51:06;;;;;;;9.60;5.72;;;12.80;43.70;;;;;;5022987;28;37741;-77
2023/10/18 10:53:43;;;;;;;7.32;5.55;;;12.70;45.20;;;;;;5032553;28;47426;-78
2023/10/18 10:56:26;;;;;;;9.95;6.15;;;12.80;57.70;;;;;;5018908;28;37304;-77
2023/10/18 11:01:43;;;;;;;8.43;5.32;;;12.90;47.80;;;;;;5015049;28;48975;-78
2023/10/18 11:04:24;;;;;;;11.73;6.30;;;13.00;56.80;;;;;;5014875;28;39614;-77
2023/10/18 11:06:57;;;;;;;9.75;5.85;;;13.10;45.60;;;;;;5020825;28;38025;-76
2023/10/18 11:09:38;;;;;;;11.88;5.85;;;13.10;46.80;;;;;;5029583;28;37405;-77
2023/10/18 11:12:22;;;;;;;7.57;6.07;;;13.20;50.20;;;;;;5021022;28;38942;-76
2023/10/18 11:14:52;;;;;;;10.32;5.60;;;13.10;34.60;;;;;;5035895;28;37301;-77
2023/10/18 11:17:19;;;;;;;11.68;5.78;;;13.10;50.80;;;;;;5030646;28;36932;-76
2023/10/18 11:19:53;;;;;;;8.32;5.68;;;13.00;43.40;;;;;;5023974;28;38194;-76
2023/10/18 11:22:22;;;;;;;7.95;5.60;;;13.00;49.60;;;;;;5019831;28;38766;-76
2023/10/18 11:24:53;;;;;;;9.82;5.80;;;13.10;50.10;;;;;;5039348;28;37115;-76
2023/10/18 11:27:33;;;;;;;7.70;5.50;;;13.20;47.70;;;;;;5023715;28;36882;-76
2023/10/18 11:30:45;;;;;;;7.75;6.25;;;13.20;38.80;;;;;;5025750;28;36278;-75
2023/10/18 11:32:50;;;;;;;9.57;6.22;;;13.10;46.90;;;;;;5013611;28;48494;-77
2023/10/18 11:35:27;;;;;;;11.13;6.40;;;13.30;68.20;;;;;;5025647;28;39205;-76
2023/10/18 11:38:01;;;;;;;9.98;6.10;;;13.50;48.30;;;;;;5026925;28;38352;-77
2023/10/18 11:40:30;;;;;;;7.18;5.55;;;13.70;45.50;;;;;;5028325;28;49929;-77
2023/10/18 11:43:09;;;;;;;8.27;5.40;;;13.90;32.50;;;;;;5025657;28;38123;-77
2023/10/18 11:45:37;;;;;;;9.70;5.93;;;14.00;33.00;;;;;;5027775;28;48719;-77
2023/10/18 11:48:06;;;;;;;7.75;5.70;;;14.10;31.20;;;;;;5027507;28;39101;-78
2023/10/18 11:50:48;;;;;;;11.18;6.70;;;14.20;25.80;;;;;;5022661;28;37505;-77
2023/10/18 11:53:17;;;;;;;9.32;5.97;;;14.10;35.30;;;;;;5026446;28;38901;-78
2023/10/18 11:55:58;;;;;;;11.52;5.93;;;14.10;24.60;;;;;;5026191;28;37430;-76
2023/10/18 11:58:26;;;;;;;9.93;6.15;;;14.10;29.70;;;;;;5040876;28;39015;-77
2023/10/18 12:00:58;;;;;;;10.07;5.88;;;14.20;25.40;;;;;;5026087;28;37386;-76
2023/10/18 12:03:27;;;;;;;11.27;6.10;;;14.20;29.10;;;;;;5017686;28;38927;-79
2023/10/18 12:05:57;;;;;;;14.75;6.63;;;14.20;29.60;;;;;;5021074;28;38607;-77
2023/10/18 12:08:24;;;;;;;9.00;6.05;;;14.20;27.10;;;;;;5025390;28;37723;-76
2023/10/18 12:10:54;;;;;;;7.75;5.72;;;14.20;28.70;;;;;;5026046;28;36652;-78
2023/10/18 12:13:20;;;;;;;7.78;6.05;;;14.30;19.30;;;;;;5028675;28;39817;-76
2023/10/18 12:15:47;;;;;;;7.88;5.50;;;14.30;32.00;;;;;;5027979;28;38505;-78
2023/10/18 12:18:14;;;;;;;7.53;5.13;;;14.30;27.00;;;;;;5023016;28;37792;-78
2023/10/18 12:20:44;;;;;;;9.82;5.32;;;14.50;41.00;;;;;;5025189;28;38236;-77
2023/10/18 12:23:18;;;;;;;10.40;6.07;;;14.40;37.20;;;;;;5026336;28;38702;-77
2023/10/18 12:25:45;;;;;;;11.68;5.93;;;14.60;31.30;;;;;;5020226;28;39248;-78
2023/10/18 12:28:12;;;;;;;7.22;5.90;;;14.60;25.20;;;;;;5025192;28;36873;-78
2023/10/18 12:30:51;;;;;;;13.50;6.35;;;14.50;26.80;;;;;;5027316;28;36886;-76
2023/10/18 12:33:26;;;;;;;8.85;5.88;;;14.50;52.30;;;;;;5021151;28;38797;-76
2023/10/18 12:35:56;;;;;;;12.43;6.75;;;14.60;56.30;;;;;;5041563;28;39344;-77
2023/10/18 12:38:35;;;;;;;9.02;6.18;;;14.80;23.10;;;;;;5042576;28;37594;-77
2023/10/18 12:41:08;;;;;;;7.82;5.90;;;14.90;26.50;;;;;;5027975;28;37150;-77
2023/10/18 12:43:44;;;;;;;10.43;6.38;;;15.00;27.70;;;;;;5026115;28;37868;-78
2023/10/18 12:46:17;;;;;;;10.65;6.30;;;15.20;27.10;;;;;;5028513;28;38706;-78
2023/10/18 12:48:43;;;;;;;8.27;5.68;;;15.20;22.20;;;;;;5025375;28;38854;-76
2023/10/18 12:51:13;;;;;;;12.07;6.32;;;15.10;24.40;;;;;;5023801;28;36513;-77
2023/10/18 12:53:57;;;;;;;13.77;6.32;;;15.20;20.10;;;;;;5021927;28;38343;-78
2023/10/18 13:01:39;;;;;;;8.35;6.32;;;15.20;34.50;;;;;;5026664;28;48919;-77
2023/10/18 13:04:17;;;;;;;9.75;6.22;;;14.90;30.60;;;;;;5019881;28;37644;-77
2023/10/18 13:06:44;;;;;;;9.02;5.72;;;14.90;40.80;;;;;;5024769;28;37341;-75
2023/10/18 13:14:49;;;;;;;10.80;6.22;;;14.90;23.40;;;;;;5022770;28;48342;-77
2023/10/18 13:17:16;;;;;;;10.57;6.07;;;14.80;46.20;;;;;;5027360;28;39429;-78
2023/10/18 13:19:44;;;;;;;9.82;6.20;;;14.90;26.30;;;;;;5021977;28;36802;-77
2023/10/18 13:22:17;;;;;;;10.50;5.82;;;14.90;33.00;;;;;;5019780;28;36050;-78
2023/10/18 13:24:44;;;;;;;7.97;5.72;;;14.90;28.20;;;;;;5024373;28;37898;-77
2023/10/18 13:27:14;;;;;;;9.73;6.10;;;15.00;51.30;;;;;;5028041;28;38633;-77
2023/10/18 13:29:48;;;;;;;10.13;6.78;;;15.10;66.00;;;;;;5025660;28;37342;-77
2023/10/18 13:32:15;;;;;;;10.18;6.40;;;15.10;33.40;;;;;;5039054;28;36434;-77
2023/10/18 13:34:43;;;;;;;9.77;5.93;;;15.20;26.30;;;;;;5027023;28;38182;-77
2023/10/18 13:37:13;;;;;;;8.52;6.20;;;15.30;25.60;;;;;;5024659;28;37526;-79
2023/10/18 13:39:47;;;;;;;9.27;6.18;;;15.30;25.10;;;;;;5024081;28;38743;-77
2023/10/18 13:42:14;;;;;;;7.97;5.95;;;15.30;23.30;;;;;;5027149;28;37444;-77
2023/10/18 13:44:41;;;;;;;14.07;6.43;;;15.40;20.20;;;;;;5024830;28;38026;-77
2023/10/18 13:47:07;;;;;;;11.38;6.57;;;15.20;13.60;;;;;;5022377;28;38232;-77
2023/10/18 13:49:34;;;;;;;10.95;5.82;;;15.20;10.80;;;;;;5026334;28;37869;-79
2023/10/18 13:52:00;;;;;;;10.63;5.95;;;15.20;21.20;;;;;;5024600;28;36814;-77